sensor_id;sensor_type;location;lat;lon;timestamp;pressure;altitude;pressure_sealevel;temperature;humidity
73297;BME280;61524;50.938;11.396;2023-05-23T00:00:53;98700.41;;;17.84;87.18
73297;BME280;61524;50.938;11.396;2023-05-23T00:03:18;98700.81;;;17.77;87.29
73297;BME280;61524;50.938;11.396;2023-05-23T00:05:47;98707.88;;;17.59;87.27
73297;BME280;61524;50.938;11.396;2023-05-23T00:08:13;98690.50;;;17.52;88.39
73297;BME280;61524;50.938;11.396;2023-05-23T00:10:38;98698.22;;;17.45;87.89
73297;BME280;61524;50.938;11.396;2023-05-23T00:13:03;98691.50;;;17.42;88.27
73297;BME280;61524;50.938;11.396;2023-05-23T00:15:29;98696.00;;;17.33;88.74
73297;BME280;61524;50.938;11.396;2023-05-23T00:17:55;98683.56;;;17.59;87.54
73297;BME280;61524;50.938;11.396;2023-05-23T00:20:20;98693.91;;;17.57;88.13
73297;BME280;61524;50.938;11.396;2023-05-23T00:22:47;98687.59;;;17.62;88.01
73297;BME280;61524;50.938;11.396;2023-05-23T00:25:12;98693.78;;;17.63;87.51
73297;BME280;61524;50.938;11.396;2023-05-23T00:27:38;98691.41;;;17.61;87.55
73297;BME280;61524;50.938;11.396;2023-05-23T00:30:03;98689.28;;;17.72;88.06
73297;BME280;61524;50.938;11.396;2023-05-23T00:32:29;98695.28;;;17.69;87.58
73297;BME280;61524;50.938;11.396;2023-05-23T00:34:54;98700.69;;;17.69;87.77
73297;BME280;61524;50.938;11.396;2023-05-23T00:37:22;98695.59;;;17.81;87.27
73297;BME280;61524;50.938;11.396;2023-05-23T00:39:48;98695.59;;;17.81;87.55
73297;BME280;61524;50.938;11.396;2023-05-23T00:42:13;98695.50;;;17.86;87.17
73297;BME280;61524;50.938;11.396;2023-05-23T00:44:39;98689.50;;;17.89;87.12
73297;BME280;61524;50.938;11.396;2023-05-23T00:47:06;98691.19;;;17.85;86.81
73297;BME280;61524;50.938;11.396;2023-05-23T00:49:33;98703.38;;;18.10;85.84
73297;BME280;61524;50.938;11.396;2023-05-23T00:51:58;98697.97;;;18.10;85.76
73297;BME280;61524;50.938;11.396;2023-05-23T00:54:28;98697.53;;;18.17;86.32
73297;BME280;61524;50.938;11.396;2023-05-23T00:56:56;98690.75;;;18.05;87.43
73297;BME280;61524;50.938;11.396;2023-05-23T00:59:23;98700.97;;;18.08;87.23
73297;BME280;61524;50.938;11.396;2023-05-23T01:01:50;98693.94;;;18.07;87.40
73297;BME280;61524;50.938;11.396;2023-05-23T01:04:17;98699.13;;;18.18;86.59
73297;BME280;61524;50.938;11.396;2023-05-23T01:06:44;98698.84;;;18.19;86.40
73297;BME280;61524;50.938;11.396;2023-05-23T01:09:11;98702.94;;;18.17;85.93
73297;BME280;61524;50.938;11.396;2023-05-23T01:11:52;98705.84;;;18.20;86.04
73297;BME280;61524;50.938;11.396;2023-05-23T01:14:25;98718.94;;;18.27;86.29
73297;BME280;61524;50.938;11.396;2023-05-23T01:16:57;98718.16;;;18.26;86.22
73297;BME280;61524;50.938;11.396;2023-05-23T01:22:13;98718.84;;;18.18;86.47
73297;BME280;61524;50.938;11.396;2023-05-23T01:30:00;98724.47;;;18.22;86.12
73297;BME280;61524;50.938;11.396;2023-05-23T01:32:27;98719.84;;;18.22;86.40
73297;BME280;61524;50.938;11.396;2023-05-23T01:34:53;98721.97;;;18.12;85.80
73297;BME280;61524;50.938;11.396;2023-05-23T01:37:21;98723.78;;;18.16;85.77
73297;BME280;61524;50.938;11.396;2023-05-23T01:39:46;98734.13;;;18.00;86.47
73297;BME280;61524;50.938;11.396;2023-05-23T01:42:12;98732.25;;;17.87;86.80
73297;BME280;61524;50.938;11.396;2023-05-23T01:44:38;98727.53;;;17.93;86.36
73297;BME280;61524;50.938;11.396;2023-05-23T01:47:06;98726.03;;;17.87;86.36
73297;BME280;61524;50.938;11.396;2023-05-23T01:49:32;98724.41;;;17.72;86.36
73297;BME280;61524;50.938;11.396;2023-05-23T01:52:00;98732.63;;;17.67;87.19
73297;BME280;61524;50.938;11.396;2023-05-23T01:54:27;98735.22;;;17.58;87.49
73297;BME280;61524;50.938;11.396;2023-05-23T01:56:57;98726.81;;;17.59;86.58
73297;BME280;61524;50.938;11.396;2023-05-23T01:59:23;98727.72;;;17.55;86.54
73297;BME280;61524;50.938;11.396;2023-05-23T02:01:49;98722.00;;;17.43;87.01
73297;BME280;61524;50.938;11.396;2023-05-23T02:04:15;98723.41;;;17.40;86.69
73297;BME280;61524;50.938;11.396;2023-05-23T02:06:40;98737.84;;;17.49;86.08
73297;BME280;61524;50.938;11.396;2023-05-23T02:09:06;98726.00;;;17.59;85.82
73297;BME280;61524;50.938;11.396;2023-05-23T02:11:32;98727.81;;;17.50;86.41
73297;BME280;61524;50.938;11.396;2023-05-23T02:13:58;98729.59;;;17.41;86.41
73297;BME280;61524;50.938;11.396;2023-05-23T02:16:23;98737.72;;;17.41;86.67
73297;BME280;61524;50.938;11.396;2023-05-23T02:18:50;98728.69;;;17.31;86.96
73297;BME280;61524;50.938;11.396;2023-05-23T02:21:17;98737.31;;;17.34;87.13
73297;BME280;61524;50.938;11.396;2023-05-23T02:23:43;98726.78;;;17.32;87.20
73297;BME280;61524;50.938;11.396;2023-05-23T02:26:08;98733.28;;;17.31;87.10
73297;BME280;61524;50.938;11.396;2023-05-23T02:28:33;98724.00;;;17.37;86.11
73297;BME280;61524;50.938;11.396;2023-05-23T02:31:01;98729.78;;;17.30;87.89
73297;BME280;61524;50.938;11.396;2023-05-23T02:33:26;98728.78;;;17.26;87.38
73297;BME280;61524;50.938;11.396;2023-05-23T02:35:52;98732.81;;;17.29;87.15
73297;BME280;61524;50.938;11.396;2023-05-23T02:38:19;98734.44;;;17.11;87.60
73297;BME280;61524;50.938;11.396;2023-05-23T02:40:45;98740.94;;;17.10;87.32
73297;BME280;61524;50.938;11.396;2023-05-23T02:43:10;98736.34;;;17.11;87.61
73297;BME280;61524;50.938;11.396;2023-05-23T02:45:36;98744.53;;;17.05;87.45
73297;BME280;61524;50.938;11.396;2023-05-23T02:48:01;98740.47;;;17.08;87.38
73297;BME280;61524;50.938;11.396;2023-05-23T02:50:27;98741.75;;;17.11;87.66
73297;BME280;61524;50.938;11.396;2023-05-23T02:52:52;98744.19;;;17.12;87.73
73297;BME280;61524;50.938;11.396;2023-05-23T02:55:18;98745.06;;;17.08;88.29
73297;BME280;61524;50.938;11.396;2023-05-23T02:57:43;98739.66;;;17.21;87.79
73297;BME280;61524;50.938;11.396;2023-05-23T03:00:09;98752.50;;;17.43;86.40
73297;BME280;61524;50.938;11.396;2023-05-23T03:02:36;98753.38;;;17.25;87.33
73297;BME280;61524;50.938;11.396;2023-05-23T03:05:01;98752.91;;;17.23;87.60
73297;BME280;61524;50.938;11.396;2023-05-23T03:07:28;98755.06;;;17.21;87.49
73297;BME280;61524;50.938;11.396;2023-05-23T03:09:55;98766.75;;;17.16;87.53
73297;BME280;61524;50.938;11.396;2023-05-23T03:12:20;98757.22;;;17.05;87.93
73297;BME280;61524;50.938;11.396;2023-05-23T03:14:45;98758.56;;;17.08;87.81
73297;BME280;61524;50.938;11.396;2023-05-23T03:17:12;98749.47;;;17.17;87.08
73297;BME280;61524;50.938;11.396;2023-05-23T03:19:37;98754.50;;;17.24;87.04
73297;BME280;61524;50.938;11.396;2023-05-23T03:22:03;98753.59;;;17.28;86.11
73297;BME280;61524;50.938;11.396;2023-05-23T03:24:28;98754.81;;;17.22;86.62
73297;BME280;61524;50.938;11.396;2023-05-23T03:26:54;98755.78;;;17.13;86.88
73297;BME280;61524;50.938;11.396;2023-05-23T03:29:19;98759.94;;;17.05;87.46
73297;BME280;61524;50.938;11.396;2023-05-23T03:31:45;98752.63;;;17.05;87.14
73297;BME280;61524;50.938;11.396;2023-05-23T03:34:10;98759.06;;;17.10;87.03
73297;BME280;61524;50.938;11.396;2023-05-23T03:36:37;98752.47;;;17.16;86.70
73297;BME280;61524;50.938;11.396;2023-05-23T03:39:03;98756.03;;;17.11;86.68
73297;BME280;61524;50.938;11.396;2023-05-23T03:41:28;98765.69;;;17.17;86.58
73297;BME280;61524;50.938;11.396;2023-05-23T03:43:54;98762.34;;;17.07;86.82
73297;BME280;61524;50.938;11.396;2023-05-23T03:46:19;98755.69;;;17.18;86.61
73297;BME280;61524;50.938;11.396;2023-05-23T03:48:45;98750.19;;;17.23;86.53
73297;BME280;61524;50.938;11.396;2023-05-23T03:51:10;98756.59;;;17.27;86.21
73297;BME280;61524;50.938;11.396;2023-05-23T03:53:38;98767.47;;;17.22;86.17
73297;BME280;61524;50.938;11.396;2023-05-23T03:56:03;98758.00;;;17.24;86.24
73297;BME280;61524;50.938;11.396;2023-05-23T03:58:29;98760.09;;;17.27;86.15
73297;BME280;61524;50.938;11.396;2023-05-23T04:00:54;98758.41;;;17.31;85.91
73297;BME280;61524;50.938;11.396;2023-05-23T04:03:19;98754.00;;;17.36;86.06
73297;BME280;61524;50.938;11.396;2023-05-23T04:05:45;98751.31;;;17.36;86.28
73297;BME280;61524;50.938;11.396;2023-05-23T04:08:10;98764.38;;;17.75;84.86
73297;BME280;61524;50.938;11.396;2023-05-23T04:10:37;98770.69;;;17.84;84.73
73297;BME280;61524;50.938;11.396;2023-05-23T04:13:02;98782.06;;;17.81;84.33
73297;BME280;61524;50.938;11.396;2023-05-23T04:15:28;98776.06;;;18.12;83.94
73297;BME280;61524;50.938;11.396;2023-05-23T04:17:54;98783.09;;;18.49;81.72
73297;BME280;61524;50.938;11.396;2023-05-23T04:20:20;98758.19;;;18.74;80.90
73297;BME280;61524;50.938;11.396;2023-05-23T04:22:45;98781.63;;;18.43;81.63
73297;BME280;61524;50.938;11.396;2023-05-23T04:25:11;98774.47;;;18.24;82.43
73297;BME280;61524;50.938;11.396;2023-05-23T04:27:38;98785.00;;;17.98;84.02
73297;BME280;61524;50.938;11.396;2023-05-23T04:30:06;98780.09;;;17.87;84.63
73297;BME280;61524;50.938;11.396;2023-05-23T04:32:34;98782.28;;;17.71;85.51
73297;BME280;61524;50.938;11.396;2023-05-23T04:35:00;98794.50;;;18.09;84.30
73297;BME280;61524;50.938;11.396;2023-05-23T04:37:26;98789.09;;;17.82;85.69
73297;BME280;61524;50.938;11.396;2023-05-23T04:39:52;98789.88;;;17.96;85.06
73297;BME280;61524;50.938;11.396;2023-05-23T04:42:18;98789.97;;;18.19;84.20
73297;BME280;61524;50.938;11.396;2023-05-23T04:44:49;98801.81;;;17.95;85.30
73297;BME280;61524;50.938;11.396;2023-05-23T04:47:15;98817.44;;;17.84;85.77
73297;BME280;61524;50.938;11.396;2023-05-23T04:49:41;98811.22;;;17.84;85.73
73297;BME280;61524;50.938;11.396;2023-05-23T04:52:06;98816.44;;;17.94;85.57
73297;BME280;61524;50.938;11.396;2023-05-23T04:54:32;98820.84;;;17.76;86.23
73297;BME280;61524;50.938;11.396;2023-05-23T04:56:58;98810.28;;;17.61;87.09
73297;BME280;61524;50.938;11.396;2023-05-23T04:59:23;98817.19;;;17.67;86.85
73297;BME280;61524;50.938;11.396;2023-05-23T05:01:48;98811.22;;;17.84;86.06
73297;BME280;61524;50.938;11.396;2023-05-23T05:04:14;98816.03;;;17.87;86.06
73297;BME280;61524;50.938;11.396;2023-05-23T05:06:40;98814.94;;;18.16;85.52
73297;BME280;61524;50.938;11.396;2023-05-23T05:09:06;98814.53;;;18.08;85.12
73297;BME280;61524;50.938;11.396;2023-05-23T05:11:31;98794.22;;;17.83;85.67
73297;BME280;61524;50.938;11.396;2023-05-23T05:13:57;98822.31;;;17.96;85.69
73297;BME280;61524;50.938;11.396;2023-05-23T05:16:22;98820.94;;;17.85;86.01
73297;BME280;61524;50.938;11.396;2023-05-23T05:18:48;98818.94;;;17.91;86.04
73297;BME280;61524;50.938;11.396;2023-05-23T05:21:13;98829.28;;;17.70;86.89
73297;BME280;61524;50.938;11.396;2023-05-23T05:23:39;98819.56;;;17.69;87.45
73297;BME280;61524;50.938;11.396;2023-05-23T05:26:05;98831.06;;;17.47;88.01
73297;BME280;61524;50.938;11.396;2023-05-23T05:28:30;98828.63;;;17.78;87.34
73297;BME280;61524;50.938;11.396;2023-05-23T05:30:56;98844.78;;;17.50;88.24
73297;BME280;61524;50.938;11.396;2023-05-23T05:33:22;98835.84;;;17.82;87.37
73297;BME280;61524;50.938;11.396;2023-05-23T05:35:49;98850.25;;;17.45;88.29
73297;BME280;61524;50.938;11.396;2023-05-23T05:38:17;98842.06;;;17.50;88.24
73297;BME280;61524;50.938;11.396;2023-05-23T05:40:43;98843.41;;;17.67;87.25
73297;BME280;61524;50.938;11.396;2023-05-23T05:43:08;98848.84;;;17.48;87.31
73297;BME280;61524;50.938;11.396;2023-05-23T05:45:35;98852.66;;;17.14;88.36
73297;BME280;61524;50.938;11.396;2023-05-23T05:48:00;98844.97;;;17.21;87.98
73297;BME280;61524;50.938;11.396;2023-05-23T05:50:26;98852.13;;;17.31;87.73
73297;BME280;61524;50.938;11.396;2023-05-23T05:52:51;98855.94;;;17.11;88.37
73297;BME280;61524;50.938;11.396;2023-05-23T05:55:16;98854.47;;;17.00;88.38
73297;BME280;61524;50.938;11.396;2023-05-23T05:57:42;98860.19;;;17.17;86.78
73297;BME280;61524;50.938;11.396;2023-05-23T06:00:12;98863.59;;;17.04;86.62
73297;BME280;61524;50.938;11.396;2023-05-23T06:02:42;98866.25;;;16.90;86.67
73297;BME280;61524;50.938;11.396;2023-05-23T06:05:09;98870.97;;;17.17;85.87
73297;BME280;61524;50.938;11.396;2023-05-23T06:07:37;98860.44;;;17.35;85.49
73297;BME280;61524;50.938;11.396;2023-05-23T06:10:03;98864.44;;;17.37;84.20
73297;BME280;61524;50.938;11.396;2023-05-23T06:12:28;98875.66;;;17.12;83.71
73297;BME280;61524;50.938;11.396;2023-05-23T06:14:54;98858.06;;;17.14;83.16
73297;BME280;61524;50.938;11.396;2023-05-23T06:17:20;98867.22;;;17.32;82.28
73297;BME280;61524;50.938;11.396;2023-05-23T06:19:45;98860.81;;;17.61;80.30
73297;BME280;61524;50.938;11.396;2023-05-23T06:22:10;98866.69;;;18.23;77.78
73297;BME280;61524;50.938;11.396;2023-05-23T06:24:36;98871.75;;;18.66;76.19
73297;BME280;61524;50.938;11.396;2023-05-23T06:27:01;98873.59;;;18.29;76.19
73297;BME280;61524;50.938;11.396;2023-05-23T06:29:28;98867.28;;;18.06;77.21
73297;BME280;61524;50.938;11.396;2023-05-23T06:31:55;98868.47;;;17.72;78.63
73297;BME280;61524;50.938;11.396;2023-05-23T06:34:20;98871.44;;;17.71;79.12
73297;BME280;61524;50.938;11.396;2023-05-23T06:36:46;98872.47;;;17.75;78.77
73297;BME280;61524;50.938;11.396;2023-05-23T06:39:12;98883.31;;;18.02;78.59
73297;BME280;61524;50.938;11.396;2023-05-23T06:41:38;98873.03;;;17.72;78.97
73297;BME280;61524;50.938;11.396;2023-05-23T06:44:04;98878.03;;;17.97;78.60
73297;BME280;61524;50.938;11.396;2023-05-23T06:46:30;98879.63;;;17.98;78.72
73297;BME280;61524;50.938;11.396;2023-05-23T06:48:55;98880.38;;;17.85;79.53
73297;BME280;61524;50.938;11.396;2023-05-23T06:51:21;98885.91;;;18.07;78.59
73297;BME280;61524;50.938;11.396;2023-05-23T06:53:46;98887.03;;;17.93;78.76
73297;BME280;61524;50.938;11.396;2023-05-23T06:56:12;98884.97;;;17.71;79.43
73297;BME280;61524;50.938;11.396;2023-05-23T06:58:37;98891.53;;;17.65;79.13
73297;BME280;61524;50.938;11.396;2023-05-23T07:01:03;98892.44;;;17.93;78.73
73297;BME280;61524;50.938;11.396;2023-05-23T07:03:28;98885.69;;;17.90;79.60
73297;BME280;61524;50.938;11.396;2023-05-23T07:05:54;98895.06;;;18.25;78.24
73297;BME280;61524;50.938;11.396;2023-05-23T07:08:19;98892.66;;;18.10;79.10
73297;BME280;61524;50.938;11.396;2023-05-23T07:10:45;98893.34;;;18.16;80.18
73297;BME280;61524;50.938;11.396;2023-05-23T07:13:10;98904.44;;;17.87;79.23
73297;BME280;61524;50.938;11.396;2023-05-23T07:15:36;98900.09;;;17.53;77.73
73297;BME280;61524;50.938;11.396;2023-05-23T07:18:01;98901.03;;;17.62;78.73
73297;BME280;61524;50.938;11.396;2023-05-23T07:20:27;98902.69;;;17.44;78.12
73297;BME280;61524;50.938;11.396;2023-05-23T07:22:52;98909.06;;;17.67;77.58
73297;BME280;61524;50.938;11.396;2023-05-23T07:25:18;98903.50;;;17.58;77.53
73297;BME280;61524;50.938;11.396;2023-05-23T07:27:43;98897.84;;;17.60;76.82
73297;BME280;61524;50.938;11.396;2023-05-23T07:30:09;98900.16;;;17.67;76.21
73297;BME280;61524;50.938;11.396;2023-05-23T07:32:35;98903.28;;;17.74;76.15
73297;BME280;61524;50.938;11.396;2023-05-23T07:35:01;98909.34;;;17.98;76.33
73297;BME280;61524;50.938;11.396;2023-05-23T07:37:26;98905.81;;;17.51;77.32
73297;BME280;61524;50.938;11.396;2023-05-23T07:39:54;98895.66;;;18.08;76.13
73297;BME280;61524;50.938;11.396;2023-05-23T07:42:20;98899.84;;;18.28;76.51
73297;BME280;61524;50.938;11.396;2023-05-23T07:44:45;98900.84;;;18.32;75.40
73297;BME280;61524;50.938;11.396;2023-05-23T07:47:11;98908.06;;;18.65;73.85
73297;BME280;61524;50.938;11.396;2023-05-23T07:49:36;98901.44;;;18.71;73.42
73297;BME280;61524;50.938;11.396;2023-05-23T07:52:02;98894.81;;;18.77;73.20
73297;BME280;61524;50.938;11.396;2023-05-23T07:54:27;98899.84;;;18.70;71.96
73297;BME280;61524;50.938;11.396;2023-05-23T07:56:53;98907.03;;;18.88;72.24
73297;BME280;61524;50.938;11.396;2023-05-23T07:59:19;98900.22;;;18.77;72.34
73297;BME280;61524;50.938;11.396;2023-05-23T08:01:44;98905.59;;;18.41;73.14
73297;BME280;61524;50.938;11.396;2023-05-23T08:04:10;98905.44;;;18.59;71.82
73297;BME280;61524;50.938;11.396;2023-05-23T08:06:35;98915.97;;;18.61;71.49
73297;BME280;61524;50.938;11.396;2023-05-23T08:09:02;98904.84;;;18.90;71.17
73297;BME280;61524;50.938;11.396;2023-05-23T08:11:28;98911.66;;;18.87;71.11
73297;BME280;61524;50.938;11.396;2023-05-23T08:13:54;98908.16;;;18.18;72.69
73297;BME280;61524;50.938;11.396;2023-05-23T08:16:20;98926.38;;;18.40;72.63
73297;BME280;61524;50.938;11.396;2023-05-23T08:18:46;98928.81;;;18.42;72.78
73297;BME280;61524;50.938;11.396;2023-05-23T08:21:11;98919.88;;;18.27;73.02
73297;BME280;61524;50.938;11.396;2023-05-23T08:23:37;98922.50;;;18.32;73.43
73297;BME280;61524;50.938;11.396;2023-05-23T08:26:02;98924.09;;;18.33;72.93
73297;BME280;61524;50.938;11.396;2023-05-23T08:28:27;98930.00;;;18.77;70.87
73297;BME280;61524;50.938;11.396;2023-05-23T08:30:53;98936.63;;;18.71;70.22
73297;BME280;61524;50.938;11.396;2023-05-23T08:33:21;98941.59;;;19.05;71.42
73297;BME280;61524;50.938;11.396;2023-05-23T08:35:46;98932.44;;;19.73;68.36
73297;BME280;61524;50.938;11.396;2023-05-23T08:38:12;98927.75;;;19.87;67.16
73297;BME280;61524;50.938;11.396;2023-05-23T08:40:38;98927.09;;;20.13;66.47
73297;BME280;61524;50.938;11.396;2023-05-23T08:43:05;98934.91;;;19.61;66.65
73297;BME280;61524;50.938;11.396;2023-05-23T08:45:31;98940.66;;;19.46;67.43
73297;BME280;61524;50.938;11.396;2023-05-23T08:47:59;98943.66;;;18.85;69.07
73297;BME280;61524;50.938;11.396;2023-05-23T08:50:27;98928.75;;;19.10;68.79
73297;BME280;61524;50.938;11.396;2023-05-23T08:52:56;98945.06;;;18.69;70.26
73297;BME280;61524;50.938;11.396;2023-05-23T08:55:28;98943.47;;;18.68;70.55
73297;BME280;61524;50.938;11.396;2023-05-23T08:57:56;98938.22;;;18.58;71.95
73297;BME280;61524;50.938;11.396;2023-05-23T09:00:24;98943.53;;;18.49;72.37
73297;BME280;61524;50.938;11.396;2023-05-23T09:02:49;98949.03;;;18.17;72.40
73297;BME280;61524;50.938;11.396;2023-05-23T09:05:15;98949.06;;;17.84;73.66
73297;BME280;61524;50.938;11.396;2023-05-23T09:07:43;98951.38;;;17.91;74.65
73297;BME280;61524;50.938;11.396;2023-05-23T09:10:09;98957.38;;;17.69;75.29
73297;BME280;61524;50.938;11.396;2023-05-23T09:12:35;98959.66;;;17.80;75.87
73297;BME280;61524;50.938;11.396;2023-05-23T09:15:05;98965.06;;;17.80;76.32
73297;BME280;61524;50.938;11.396;2023-05-23T09:17:32;98967.34;;;17.73;76.69
73297;BME280;61524;50.938;11.396;2023-05-23T09:19:58;98967.03;;;18.07;76.11
73297;BME280;61524;50.938;11.396;2023-05-23T09:22:25;98965.81;;;17.48;77.56
73297;BME280;61524;50.938;11.396;2023-05-23T09:24:52;98974.13;;;17.52;78.96
73297;BME280;61524;50.938;11.396;2023-05-23T09:27:17;98976.69;;;17.62;78.08
73297;BME280;61524;50.938;11.396;2023-05-23T09:29:43;98977.09;;;17.69;77.58
73297;BME280;61524;50.938;11.396;2023-05-23T09:32:12;98969.66;;;17.80;76.19
73297;BME280;61524;50.938;11.396;2023-05-23T09:35:03;98966.38;;;17.83;76.43
73297;BME280;61524;50.938;11.396;2023-05-23T09:37:36;98974.34;;;17.74;76.65
73297;BME280;61524;50.938;11.396;2023-05-23T09:40:08;98974.66;;;17.73;76.92
73297;BME280;61524;50.938;11.396;2023-05-23T09:42:34;98977.72;;;17.47;78.04
73297;BME280;61524;50.938;11.396;2023-05-23T09:45:00;98977.00;;;17.61;77.36
73297;BME280;61524;50.938;11.396;2023-05-23T09:47:25;98977.41;;;17.68;77.24
73297;BME280;61524;50.938;11.396;2023-05-23T09:49:54;98978.38;;;17.77;77.25
73297;BME280;61524;50.938;11.396;2023-05-23T09:52:19;98967.69;;;17.86;76.71
73297;BME280;61524;50.938;11.396;2023-05-23T09:54:46;98972.38;;;17.80;76.93
73297;BME280;61524;50.938;11.396;2023-05-23T09:57:13;98981.00;;;17.63;77.38
73297;BME280;61524;50.938;11.396;2023-05-23T09:59:41;98962.25;;;17.34;77.91
73297;BME280;61524;50.938;11.396;2023-05-23T10:02:15;98976.50;;;17.40;78.55
73297;BME280;61524;50.938;11.396;2023-05-23T10:04:41;98964.75;;;17.49;78.32
73297;BME280;61524;50.938;11.396;2023-05-23T10:07:17;98977.22;;;17.26;78.72
73297;BME280;61524;50.938;11.396;2023-05-23T10:09:51;98977.28;;;17.21;79.69
73297;BME280;61524;50.938;11.396;2023-05-23T10:12:35;98986.94;;;17.27;79.87
73297;BME280;61524;50.938;11.396;2023-05-23T10:15:04;98978.66;;;17.38;79.42
73297;BME280;61524;50.938;11.396;2023-05-23T10:17:57;98983.28;;;17.37;79.44
73297;BME280;61524;50.938;11.396;2023-05-23T10:20:28;98990.78;;;17.78;78.44
73297;BME280;61524;50.938;11.396;2023-05-23T10:22:58;98981.75;;;17.50;78.58
73297;BME280;61524;50.938;11.396;2023-05-23T10:25:23;98979.06;;;17.50;79.62
73297;BME280;61524;50.938;11.396;2023-05-23T10:27:54;98974.41;;;17.69;78.51
73297;BME280;61524;50.938;11.396;2023-05-23T10:30:27;98966.47;;;17.78;78.88
73297;BME280;61524;50.938;11.396;2023-05-23T10:32:56;98978.16;;;18.06;77.22
73297;BME280;61524;50.938;11.396;2023-05-23T10:40:57;98983.66;;;18.01;77.51
73297;BME280;61524;50.938;11.396;2023-05-23T10:45:56;98978.47;;;18.18;76.90
73297;BME280;61524;50.938;11.396;2023-05-23T10:48:32;98991.59;;;18.11;76.93
73297;BME280;61524;50.938;11.396;2023-05-23T10:51:10;98990.00;;;17.77;77.78
73297;BME280;61524;50.938;11.396;2023-05-23T10:53:38;98996.44;;;17.95;77.84
73297;BME280;61524;50.938;11.396;2023-05-23T10:56:04;98992.38;;;17.98;77.89
73297;BME280;61524;50.938;11.396;2023-05-23T10:58:31;98995.00;;;17.84;77.35
73297;BME280;61524;50.938;11.396;2023-05-23T11:01:05;98985.63;;;17.95;77.10
73297;BME280;61524;50.938;11.396;2023-05-23T11:03:48;98995.25;;;17.88;77.68
73297;BME280;61524;50.938;11.396;2023-05-23T11:06:38;98996.09;;;18.16;77.11
73297;BME280;61524;50.938;11.396;2023-05-23T11:14:13;98999.09;;;17.63;78.27
73297;BME280;61524;50.938;11.396;2023-05-23T11:16:40;99005.47;;;17.53;79.09
73297;BME280;61524;50.938;11.396;2023-05-23T11:22:07;98997.66;;;17.32;79.90
73297;BME280;61524;50.938;11.396;2023-05-23T11:30:12;99012.84;;;17.28;80.28
73297;BME280;61524;50.938;11.396;2023-05-23T11:32:38;99017.84;;;17.16;80.92
73297;BME280;61524;50.938;11.396;2023-05-23T11:35:08;99017.03;;;16.97;81.03
73297;BME280;61524;50.938;11.396;2023-05-23T11:37:34;99018.53;;;17.27;80.01
73297;BME280;61524;50.938;11.396;2023-05-23T11:40:35;99023.34;;;17.30;79.14
73297;BME280;61524;50.938;11.396;2023-05-23T11:43:06;99011.25;;;17.27;79.49
73297;BME280;61524;50.938;11.396;2023-05-23T11:45:33;99020.56;;;17.16;80.14
73297;BME280;61524;50.938;11.396;2023-05-23T11:50:32;99019.19;;;17.19;79.12
73297;BME280;61524;50.938;11.396;2023-05-23T11:52:58;99021.69;;;17.34;78.74
73297;BME280;61524;50.938;11.396;2023-05-23T11:55:24;99025.13;;;17.40;78.29
73297;BME280;61524;50.938;11.396;2023-05-23T11:57:50;99020.22;;;17.23;78.71
73297;BME280;61524;50.938;11.396;2023-05-23T12:00:16;99022.91;;;17.42;78.03
73297;BME280;61524;50.938;11.396;2023-05-23T12:02:44;99031.22;;;17.64;77.35
73297;BME280;61524;50.938;11.396;2023-05-23T12:05:14;99029.13;;;17.80;76.77
73297;BME280;61524;50.938;11.396;2023-05-23T12:07:43;99030.22;;;17.79;76.90
73297;BME280;61524;50.938;11.396;2023-05-23T12:10:09;99023.56;;;17.52;77.08
73297;BME280;61524;50.938;11.396;2023-05-23T12:12:35;99036.34;;;17.47;77.63
73297;BME280;61524;50.938;11.396;2023-05-23T12:15:02;99030.50;;;17.58;77.58
73297;BME280;61524;50.938;11.396;2023-05-23T12:17:27;99034.28;;;17.20;78.26
73297;BME280;61524;50.938;11.396;2023-05-23T12:19:53;99038.50;;;17.07;79.39
73297;BME280;61524;50.938;11.396;2023-05-23T12:22:22;99030.78;;;17.19;78.72
73297;BME280;61524;50.938;11.396;2023-05-23T12:24:54;99030.72;;;17.43;77.61
73297;BME280;61524;50.938;11.396;2023-05-23T12:27:30;99040.53;;;17.15;77.86
73297;BME280;61524;50.938;11.396;2023-05-23T12:30:10;99041.34;;;17.16;78.05
73297;BME280;61524;50.938;11.396;2023-05-23T12:32:40;99033.97;;;17.21;77.35
73297;BME280;61524;50.938;11.396;2023-05-23T12:35:11;99029.00;;;17.10;77.70
73297;BME280;61524;50.938;11.396;2023-05-23T12:37:41;99042.25;;;17.30;76.49
73297;BME280;61524;50.938;11.396;2023-05-23T12:40:15;99047.09;;;17.33;75.97
73297;BME280;61524;50.938;11.396;2023-05-23T12:45:14;99045.88;;;17.20;75.72
73297;BME280;61524;50.938;11.396;2023-05-23T12:47:39;99045.56;;;17.46;75.53
73297;BME280;61524;50.938;11.396;2023-05-23T12:50:05;99058.09;;;17.37;75.68
73297;BME280;61524;50.938;11.396;2023-05-23T12:52:31;99060.22;;;17.40;76.09
73297;BME280;61524;50.938;11.396;2023-05-23T12:54:56;99061.00;;;17.21;77.16
73297;BME280;61524;50.938;11.396;2023-05-23T12:57:22;99064.09;;;17.10;78.02
73297;BME280;61524;50.938;11.396;2023-05-23T12:59:47;99065.16;;;16.90;76.63
73297;BME280;61524;50.938;11.396;2023-05-23T13:02:13;99055.97;;;16.91;76.03
73297;BME280;61524;50.938;11.396;2023-05-23T13:04:38;99063.38;;;17.04;75.87
73297;BME280;61524;50.938;11.396;2023-05-23T13:07:04;99071.97;;;17.30;75.00
73297;BME280;61524;50.938;11.396;2023-05-23T13:09:29;99072.66;;;16.69;76.80
73297;BME280;61524;50.938;11.396;2023-05-23T13:11:55;99067.69;;;16.81;76.15
73297;BME280;61524;50.938;11.396;2023-05-23T13:14:20;99076.38;;;17.21;75.77
73297;BME280;61524;50.938;11.396;2023-05-23T13:16:46;99066.75;;;17.15;75.70
73297;BME280;61524;50.938;11.396;2023-05-23T13:19:11;99083.63;;;16.77;76.74
73297;BME280;61524;50.938;11.396;2023-05-23T13:21:37;99083.13;;;16.75;77.17
73297;BME280;61524;50.938;11.396;2023-05-23T13:24:02;99088.63;;;16.89;76.75